createdAt,value
2022-11-12T00:00:29.834Z,29.60
2022-11-12T00:05:28.995Z,29.60
2022-11-12T00:10:31.089Z,30.50
2022-11-12T00:15:30.180Z,30.50
2022-11-12T00:20:31.263Z,29.40
2022-11-12T00:25:33.392Z,28.20
2022-11-12T00:30:32.573Z,28.50
2022-11-12T00:35:33.734Z,31.20
2022-11-12T00:40:35.825Z,28.20
2022-11-12T00:45:36.920Z,29.00
2022-11-12T00:50:36.036Z,30.90
2022-11-12T00:55:37.223Z,31.70
2022-11-12T01:00:39.401Z,32.90
2022-11-12T01:05:40.533Z,33.30
2022-11-12T01:10:39.609Z,38.80
2022-11-12T01:15:41.754Z,39.80
2022-11-12T01:20:40.876Z,35.90
2022-11-12T01:25:42.060Z,37.10
2022-11-12T01:30:43.232Z,31.60
2022-11-12T01:35:44.348Z,28.80
2022-11-12T01:40:45.487Z,29.40
2022-11-12T01:45:46.668Z,28.60
2022-11-12T01:50:48.212Z,33.30
2022-11-12T01:55:47.326Z,30.60
2022-11-12T02:00:48.530Z,29.80
2022-11-12T02:05:50.644Z,26.60
2022-11-12T02:10:49.738Z,28.00
2022-11-12T02:15:50.876Z,29.80
2022-11-12T02:20:53.042Z,29.40
2022-11-12T02:25:52.185Z,28.90
2022-11-12T02:30:53.362Z,29.10
2022-11-12T02:35:54.441Z,28.90
2022-11-12T02:40:55.530Z,31.70
2022-11-12T02:45:56.714Z,28.70
2022-11-12T02:50:57.896Z,28.80
2022-11-12T02:56:00.981Z,31.10
2022-11-12T03:01:00.551Z,31.00
2022-11-12T03:05:59.626Z,28.40
2022-11-12T03:11:00.761Z,31.30
2022-11-12T03:16:01.950Z,29.50
2022-11-12T03:21:05.049Z,30.10
2022-11-12T03:26:04.249Z,30.10
2022-11-12T03:31:05.380Z,42.70
2022-11-12T03:36:06.472Z,26.60
2022-11-12T03:41:07.642Z,31.50
2022-11-12T03:46:08.788Z,34.00
2022-11-12T03:51:09.933Z,39.70
2022-11-12T03:56:11.072Z,41.80
2022-11-12T04:01:12.323Z,45.20
2022-11-12T04:06:12.472Z,47.00
2022-11-12T04:11:13.629Z,60.80
2022-11-12T04:16:14.764Z,42.30
2022-11-12T04:21:15.895Z,38.20
2022-11-12T04:26:17.041Z,35.00
2022-11-12T04:31:18.134Z,32.00
2022-11-12T04:36:19.261Z,35.80
2022-11-12T04:41:21.430Z,37.40
2022-11-12T04:46:21.585Z,63.60
2022-11-12T04:51:21.689Z,37.90
2022-11-12T04:56:20.827Z,39.90
2022-11-12T05:01:22.963Z,55.70
2022-11-12T05:06:23.099Z,38.60
2022-11-12T05:11:22.258Z,30.00
2022-11-12T05:16:27.312Z,24.40
2022-11-12T05:21:25.407Z,24.60
2022-11-12T05:26:24.508Z,22.80
2022-11-12T05:31:25.623Z,24.90
2022-11-12T05:36:27.708Z,24.50
2022-11-12T05:41:32.878Z,25.50
2022-11-12T05:46:27.757Z,22.20
2022-11-12T05:51:28.955Z,24.50
2022-11-12T05:56:30.066Z,26.40
2022-11-12T06:01:31.182Z,31.10
2022-11-12T06:06:32.278Z,29.50
2022-11-12T06:11:33.407Z,28.60
2022-11-12T06:16:34.514Z,31.80
2022-11-12T06:21:36.628Z,46.30
2022-11-12T06:26:35.833Z,39.50
2022-11-12T06:31:38.928Z,28.70
2022-11-12T06:36:38.016Z,33.60
2022-11-12T06:41:39.155Z,23.40
2022-11-12T06:46:40.255Z,31.40
2022-11-12T06:51:41.355Z,27.90
2022-11-12T06:56:42.471Z,21.20
2022-11-12T07:01:43.714Z,20.70
2022-11-12T07:06:44.915Z,19.60
2022-11-12T07:11:46.110Z,19.90
2022-11-12T07:16:47.276Z,21.20
2022-11-12T07:21:48.728Z,19.80
2022-11-12T07:26:47.984Z,18.90
2022-11-12T07:31:50.135Z,19.30
2022-11-12T07:36:50.241Z,22.20
2022-11-12T07:41:49.358Z,19.10
2022-11-12T07:46:50.600Z,21.60
2022-11-12T07:51:51.706Z,18.30
2022-11-12T07:56:52.854Z,16.20
2022-11-12T08:01:54.061Z,16.40
2022-11-12T08:06:55.335Z,22.70
2022-11-12T08:11:57.494Z,23.20
2022-11-12T08:16:57.656Z,18.90
2022-11-12T08:21:57.801Z,16.50
2022-11-12T08:26:57.937Z,13.50
2022-11-12T08:31:58.086Z,21.30
2022-11-12T08:36:57.230Z,30.00
2022-11-12T08:41:58.343Z,13.50
2022-11-12T08:46:59.502Z,16.60
2022-11-12T08:52:00.681Z,13.00
2022-11-12T08:57:01.858Z,11.00
2022-11-12T09:02:03.956Z,11.70
2022-11-12T09:07:05.201Z,16.80
2022-11-12T09:12:13.687Z,15.10
2022-11-12T09:17:06.185Z,12.50
2022-11-12T09:22:16.232Z,18.20
2022-11-12T09:27:05.471Z,15.60
2022-11-12T09:32:06.607Z,15.80
2022-11-12T09:37:07.736Z,18.70
2022-11-12T09:42:08.869Z,14.00
2022-11-12T09:47:10.966Z,20.40
2022-11-12T09:52:10.155Z,20.60
2022-11-12T09:57:11.249Z,20.40
2022-11-12T10:02:12.394Z,20.30
2022-11-12T10:07:13.623Z,26.30
2022-11-12T10:12:15.748Z,21.80
2022-11-12T10:17:15.890Z,20.20
2022-11-12T10:22:15.187Z,27.30
2022-11-12T10:27:16.261Z,21.60
2022-11-12T10:32:18.357Z,34.00
2022-11-12T10:37:17.496Z,36.90
2022-11-12T10:42:19.647Z,36.30
2022-11-12T10:47:18.795Z,18.50
2022-11-12T10:52:20.920Z,24.80
2022-11-12T10:57:20.072Z,21.90
2022-11-12T11:02:21.252Z,20.40
2022-11-12T11:07:22.421Z,23.00
2022-11-12T11:12:23.554Z,22.80
2022-11-12T11:17:25.725Z,36.70
2022-11-12T11:22:24.873Z,28.50
2022-11-12T11:27:25.067Z,18.20
2022-11-12T11:32:27.173Z,17.60
2022-11-12T11:37:27.307Z,16.20
2022-11-12T11:42:26.402Z,19.40
2022-11-12T11:47:38.611Z,19.60
2022-11-12T11:52:29.493Z,21.30
2022-11-12T11:57:29.655Z,17.00
2022-11-12T12:02:29.954Z,17.80
2022-11-12T12:07:29.061Z,17.40
2022-11-12T12:12:31.152Z,18.70
2022-11-12T12:17:32.032Z,17.50
2022-11-12T12:22:31.428Z,19.40
2022-11-12T12:27:33.541Z,18.50
2022-11-12T12:32:32.651Z,18.40
2022-11-12T12:37:33.806Z,17.20
2022-11-12T12:42:35.966Z,17.50
2022-11-12T12:47:35.066Z,18.40
2022-11-12T12:52:37.248Z,19.00
2022-11-12T12:57:36.345Z,16.30
2022-11-12T13:02:37.508Z,22.10
2022-11-12T13:07:38.609Z,17.40
2022-11-12T13:12:39.751Z,19.50
2022-11-12T13:17:40.929Z,17.10
2022-11-12T13:22:42.141Z,21.00
2022-11-12T13:27:43.239Z,17.90
2022-11-12T13:32:44.455Z,17.10
2022-11-12T13:37:45.633Z,19.10
2022-11-12T13:42:47.763Z,17.40
2022-11-12T13:47:46.853Z,19.00
2022-11-12T13:52:47.019Z,17.10
2022-11-12T13:57:48.120Z,18.50
2022-11-12T14:02:49.274Z,17.00
2022-11-12T14:07:51.392Z,18.50
2022-11-12T14:12:50.517Z,18.00
2022-11-12T14:17:53.606Z,15.40
2022-11-12T14:22:52.789Z,18.80
2022-11-12T14:27:53.936Z,17.60
2022-11-12T14:32:55.117Z,19.50
2022-11-12T14:37:57.294Z,19.90
2022-11-12T14:42:56.476Z,16.00
2022-11-12T14:47:57.599Z,17.30
2022-11-12T14:52:58.750Z,18.10
2022-11-12T14:58:00.903Z,16.50
2022-11-12T15:03:01.086Z,16.00
2022-11-12T15:08:00.327Z,15.90
2022-11-12T15:13:01.482Z,16.00
2022-11-12T15:18:03.574Z,17.30
2022-11-12T15:23:03.676Z,17.70
2022-11-12T15:28:03.123Z,22.80
2022-11-12T15:33:04.511Z,15.50
2022-11-12T15:38:05.651Z,16.40
2022-11-12T15:43:06.799Z,16.80
2022-11-12T15:48:07.941Z,15.60
2022-11-12T15:53:09.147Z,17.30
2022-11-12T15:58:10.279Z,17.30
2022-11-12T16:03:11.532Z,17.20
2022-11-12T16:08:13.634Z,17.40
2022-11-12T16:13:12.824Z,16.90
2022-11-12T16:18:14.079Z,18.70
2022-11-12T16:23:15.290Z,17.10
2022-11-12T16:28:16.466Z,17.50
2022-11-12T16:33:19.589Z,17.50
2022-11-12T16:38:18.689Z,18.70
2022-11-12T16:43:19.823Z,21.30
2022-11-12T16:48:21.982Z,19.70
2022-11-12T16:53:22.158Z,18.30
2022-11-12T16:58:22.543Z,20.50
2022-11-12T17:03:21.673Z,23.40
2022-11-12T17:08:22.934Z,18.90
2022-11-12T17:13:24.280Z,19.50
2022-11-12T17:18:25.586Z,19.30
2022-11-12T17:23:26.441Z,18.00
2022-11-12T17:28:28.458Z,18.60
2022-11-12T17:33:25.992Z,22.70
2022-11-12T17:38:26.294Z,23.70
2022-11-12T17:43:26.700Z,22.70
2022-11-12T17:48:26.013Z,24.10
2022-11-12T17:53:27.764Z,20.40
2022-11-12T17:58:27.078Z,22.80
2022-11-12T18:03:28.503Z,21.20
2022-11-12T18:08:28.040Z,20.30
2022-11-12T18:13:30.376Z,24.30
2022-11-12T18:18:29.893Z,19.80
2022-11-12T18:23:31.311Z,20.20
2022-11-12T18:28:32.659Z,22.50
2022-11-12T18:33:34.013Z,21.10
2022-11-12T18:38:36.243Z,20.40
2022-11-12T18:43:37.736Z,20.60
2022-11-12T18:48:35.266Z,21.10
2022-11-12T18:53:34.505Z,20.80
2022-11-12T18:58:36.853Z,21.50
2022-11-12T19:03:36.280Z,21.70
2022-11-12T19:08:38.582Z,20.90
2022-11-12T19:13:37.731Z,23.10
2022-11-12T19:18:39.040Z,23.60
2022-11-12T19:23:40.197Z,28.00
2022-11-12T19:28:43.360Z,27.50
2022-11-12T19:33:43.631Z,21.50
2022-11-12T19:38:42.903Z,22.90
2022-11-12T19:43:44.147Z,22.40
2022-11-12T19:48:45.355Z,22.80
2022-11-12T19:53:46.571Z,24.80
2022-11-12T19:58:48.718Z,27.20
2022-11-12T20:03:47.847Z,28.30
2022-11-12T20:08:52.950Z,27.20
2022-11-12T20:13:50.251Z,26.90
2022-11-12T20:18:52.620Z,28.70
2022-11-12T20:23:51.854Z,29.00
2022-11-12T20:28:53.948Z,25.10
2022-11-12T20:33:53.363Z,26.40
2022-11-12T20:38:54.677Z,22.70
2022-11-12T20:43:56.070Z,22.70
2022-11-12T20:48:58.505Z,32.80
2022-11-12T20:53:59.814Z,35.00
2022-11-12T20:58:59.081Z,30.80
2022-11-12T21:03:58.312Z,41.80
2022-11-12T21:08:59.573Z,45.00
2022-11-12T21:14:00.718Z,30.10
2022-11-12T21:19:02.825Z,20.90
2022-11-12T21:24:04.849Z,26.90
2022-11-12T21:29:03.651Z,30.30
2022-11-12T21:34:03.030Z,29.50
2022-11-12T21:39:05.320Z,27.90
2022-11-12T21:44:04.541Z,25.70
2022-11-12T21:49:06.730Z,29.70
2022-11-12T21:54:06.841Z,37.40
2022-11-12T21:59:10.839Z,39.20
2022-11-12T22:04:05.970Z,45.50
2022-11-12T22:09:08.091Z,47.80
2022-11-12T22:14:08.190Z,64.40
2022-11-12T22:19:07.393Z,52.70
2022-11-12T22:24:08.503Z,42.30
2022-11-12T22:29:09.576Z,43.00
2022-11-12T22:34:10.829Z,41.30
2022-11-12T22:39:12.381Z,37.50
2022-11-12T22:44:11.553Z,28.30
2022-11-12T22:49:12.683Z,35.80
2022-11-12T22:54:13.941Z,54.90
2022-11-12T22:59:16.040Z,67.40
2022-11-12T23:04:16.158Z,62.80
2022-11-12T23:09:16.319Z,88.00
2022-11-12T23:14:15.412Z,39.10
2022-11-12T23:19:16.546Z,57.60
2022-11-12T23:24:18.712Z,54.50
2022-11-12T23:29:18.833Z,46.30
2022-11-12T23:34:18.000Z,41.80
2022-11-12T23:39:19.337Z,40.70
2022-11-12T23:44:20.908Z,44.00
2022-11-12T23:49:21.006Z,41.60
2022-11-12T23:54:20.121Z,42.90
2022-11-12T23:59:22.237Z,40.80
